createdAt,value
2018-12-08T20:35:02.275Z,26.60
2018-12-08T20:37:30.594Z,26.50
2018-12-08T20:43:07.223Z,26.50
2018-12-08T20:45:35.505Z,26.80
2018-12-08T20:48:04.900Z,26.90
2018-12-08T20:50:33.146Z,27.00
2018-12-08T20:53:01.418Z,27.00
2018-12-08T20:55:29.670Z,27.00
2018-12-08T20:58:00.219Z,27.10
2018-12-08T21:00:28.462Z,27.10
2018-12-08T21:02:56.702Z,27.10
2018-12-08T21:05:25.070Z,27.20
2018-12-08T21:07:53.342Z,27.20
2018-12-08T21:10:21.612Z,27.20
2018-12-08T21:12:51.070Z,27.20
2018-12-08T21:15:19.346Z,27.20
2018-12-08T21:17:48.262Z,27.20
2018-12-08T21:20:16.504Z,27.20
2018-12-08T21:22:44.758Z,27.20
2018-12-08T21:25:13.078Z,27.20
2018-12-08T21:27:41.294Z,27.30
2018-12-08T21:30:09.680Z,27.30
2018-12-08T21:32:37.952Z,27.30
2018-12-08T21:35:06.386Z,27.20
2018-12-08T21:37:34.687Z,27.20
2018-12-08T21:40:04.691Z,27.20
2018-12-08T21:42:32.955Z,27.20
2018-12-08T21:45:02.038Z,27.30
2018-12-08T21:47:30.271Z,27.30
2018-12-08T21:49:58.522Z,27.40
2018-12-08T21:52:26.800Z,27.40
2018-12-08T21:54:55.095Z,27.40
2018-12-08T21:57:23.406Z,27.50
2018-12-08T21:59:51.705Z,27.50
2018-12-08T22:02:19.973Z,27.50
2018-12-08T22:04:48.276Z,27.50
2018-12-08T22:07:16.534Z,27.50
2018-12-08T22:09:44.800Z,27.50
2018-12-08T22:12:13.131Z,27.40
2018-12-08T22:14:47.111Z,27.40
2018-12-08T22:17:15.407Z,27.30
2018-12-08T22:19:43.656Z,27.30
2018-12-08T22:22:11.880Z,27.20
2018-12-08T22:24:40.137Z,27.10
2018-12-08T22:27:09.357Z,27.00
2018-12-08T22:29:37.606Z,27.00
2018-12-08T22:32:05.848Z,26.90
2018-12-08T22:34:36.213Z,26.90
2018-12-08T22:37:04.462Z,26.90
2018-12-08T22:39:32.755Z,26.80
2018-12-08T22:42:00.997Z,26.80
2018-12-08T22:44:29.264Z,26.70
2018-12-08T22:46:58.101Z,26.70
2018-12-08T22:49:26.327Z,26.70
2018-12-08T22:51:54.604Z,26.60
2018-12-08T22:54:22.847Z,26.60
2018-12-08T22:56:51.127Z,26.60
2018-12-08T22:59:19.387Z,26.60
2018-12-08T23:01:47.666Z,26.60
2018-12-08T23:04:15.921Z,26.60
2018-12-08T23:07:01.486Z,26.50
2018-12-08T23:09:29.719Z,26.50
2018-12-08T23:11:57.963Z,26.50
2018-12-08T23:14:26.243Z,26.40
2018-12-08T23:16:54.536Z,26.40
2018-12-08T23:19:22.793Z,26.40
2018-12-08T23:21:51.076Z,26.40
2018-12-08T23:24:19.314Z,26.40
2018-12-08T23:26:57.687Z,26.40
2018-12-08T23:29:25.966Z,26.30
2018-12-08T23:31:54.295Z,26.30
2018-12-08T23:34:22.593Z,26.30
2018-12-08T23:36:50.853Z,26.30
2018-12-08T23:39:19.097Z,26.20
2018-12-08T23:41:48.171Z,26.20
2018-12-08T23:44:29.119Z,26.20
2018-12-08T23:46:57.426Z,26.20
2018-12-08T23:49:26.427Z,26.20
2018-12-08T23:51:54.848Z,26.20
2018-12-08T23:54:23.396Z,26.20
2018-12-08T23:56:53.693Z,26.10
2018-12-08T23:59:22.057Z,26.10
